Terminal Aerodrome Forecast
Issued by NWS Blacksburg, VA

Current Version | Previous Version | Graphics & Text | Print | Product List | Glossary On
Versions: 1 2 3 4 5 6 7 8 9 10 11 12 13 14 15 16 17 18 19 20 21 22 23 24 25 26 27 28 29 30 31 32 33 34 35 36
000
FTUS41 KRNK 282327
TAFBLF
TAF
KBLF 282327Z 2900/2924 29006KT 6SM BR OVC002
      TEMPO 2900/2903 3SM BR OVC005
     FM290300 29006KT 2SM -RADZ OVC003
     FM290900 VRB03KT 1/2SM RA FG OVC001
     FM291700 02004KT 2SM -DZ BR SCT002 OVC006=

USA.gov is the U.S. government's official web portal to all federal, state and local government web resources and services.